Impacts METAR Board INFO
IDs:

KPHL - Philadelphia Intl, PA, US

Updated at: 0943 UTC 19 Jan 2018
Potential Impact None Slight Moderate High
Time18/21Z 18/22Z 18/23Z 19/00Z 19/01Z 19/02Z 19/03Z 19/04Z 19/05Z 19/06Z 19/07Z 19/08Z 19/09Z
VIS10 10 10 10 10 10 10 10 10 10 10 10 10
CIG-- -- -- -- -- -- -- -- -- -- -- 250 --
CoverCLRCLRCLRCLRCLRCLRCLRCLRCLRFEWFEWBKNFEW
FltCatVFRVFRVFRVFRVFRVFRVFRVFRVFRVFRVFRVFRVFR
WX--------------------------
WDir003303102903100002400220240
WSpd6 5 9 6 5 3 0 0 0 6 0 5 7
WGst-- -- -- -- -- -- -- -- -- -- -- -- --
Raw hourly METARs
KPHL 182054Z VRB06KT 10SM CLR 02/M13 A3000 RMK AO2 SLP158 T00171133 55008
KPHL 182154Z VRB05KT 10SM CLR 01/M13 A3001 RMK AO2 SLP161 T00111128
KPHL 182254Z 33009KT 10SM CLR 01/M12 A3005 RMK AO2 PRESRR SLP175 T00061122
KPHL 182354Z 31006KT 10SM CLR 00/M12 A3008 RMK AO2 SLP185 T00001122 10022 20000 53027
KPHL 190054Z 29005KT 10SM CLR 00/M12 A3009 RMK AO2 SLP190 T00001122
KPHL 190154Z 31003KT 10SM CLR 00/M12 A3011 RMK AO2 SLP195 T00001122
KPHL 190254Z 00000KT 10SM CLR M01/M12 A3012 RMK AO2 SLP198 T10111117 51013
KPHL 190354Z 00000KT 10SM CLR M02/M12 A3012 RMK AO2 SLP199 T10221117
KPHL 190454Z 00000KT 10SM CLR M03/M08 A3011 RMK AO2 SLP196 T10281078 400221078
KPHL 190554Z 24006KT 10SM FEW260 M03/M08 A3009 RMK AO2 SLP189 T10331078 10006 21039 58008
KPHL 190654Z 00000KT 10SM FEW250 M04/M09 A3008 RMK AO2 SLP187 T10441094
KPHL 190754Z 22005KT 10SM BKN250 M04/M09 A3008 RMK AO2 SLP185 T10441094
KPHL 190854Z 24007KT 10SM FEW250 M04/M09 A3009 RMK AO2 SLP190 T10391094 53000